createdAt,value
2022-10-23T00:01:02.113Z,93469.44
2022-10-23T00:04:18.164Z,93464.75
2022-10-23T00:07:21.309Z,93459.41
2022-10-23T00:10:26.616Z,93463.69
2022-10-23T00:13:29.641Z,93458.72
2022-10-23T00:16:33.058Z,93461.59
2022-10-23T00:19:36.038Z,93468.69
2022-10-23T00:22:39.656Z,93474.19
2022-10-23T00:25:42.654Z,93486.97
2022-10-23T00:28:48.058Z,93501.16
2022-10-23T00:31:51.001Z,93495.91
2022-10-23T00:34:54.529Z,93498.09
2022-10-23T00:37:57.544Z,93510.56
2022-10-23T00:41:00.739Z,93513.81
2022-10-23T00:44:05.765Z,93522.38
2022-10-23T00:47:09.127Z,93522.56
2022-10-23T00:50:12.294Z,93515.22
2022-10-23T00:53:17.060Z,93518.16
2022-10-23T00:56:19.836Z,93518.22
2022-10-23T00:59:23.095Z,93506.75
2022-10-23T01:02:26.266Z,93512.91
2022-10-23T01:05:38.768Z,93503.94
2022-10-23T01:09:18.873Z,93497.91
2022-10-23T01:12:40.310Z,93498.66
2022-10-23T01:16:03.637Z,93495.84
2022-10-23T01:19:21.097Z,93488.00
2022-10-23T01:22:35.973Z,93489.50
2022-10-23T01:25:42.067Z,93486.34
2022-10-23T01:28:48.759Z,93486.75
2022-10-23T01:32:11.900Z,93479.00
2022-10-23T01:35:25.059Z,93471.94
2022-10-23T01:38:42.719Z,93463.19
2022-10-23T01:42:05.566Z,93469.59
2022-10-23T01:45:16.929Z,93473.94
2022-10-23T01:48:26.031Z,93473.63
2022-10-23T01:51:31.130Z,93466.63
2022-10-23T01:54:43.251Z,93473.72
2022-10-23T01:57:49.625Z,93467.78
2022-10-23T02:00:56.474Z,93471.50
2022-10-23T02:04:01.719Z,93469.91
2022-10-23T02:07:05.431Z,93469.56
2022-10-23T02:10:10.269Z,93460.19
2022-10-23T02:13:17.308Z,93461.34
2022-10-23T02:16:27.904Z,93473.13
2022-10-23T02:19:57.621Z,93477.00
2022-10-23T02:23:28.760Z,93473.31
2022-10-23T02:26:39.426Z,93470.09
2022-10-23T02:30:05.259Z,93457.88
2022-10-23T02:33:11.043Z,93461.13
2022-10-23T02:36:15.197Z,93450.88
2022-10-23T02:39:18.702Z,93444.69
2022-10-23T02:42:35.071Z,93429.47
2022-10-23T02:45:50.937Z,93423.91
2022-10-23T02:49:14.290Z,93411.91
2022-10-23T02:52:31.072Z,93399.25
2022-10-23T02:55:55.487Z,93408.81
2022-10-23T02:59:11.630Z,93408.69
2022-10-23T03:02:35.899Z,93424.75
2022-10-23T03:05:41.387Z,93419.81
2022-10-23T03:08:55.808Z,93412.34
2022-10-23T03:12:01.002Z,93403.50
2022-10-23T03:15:09.339Z,93407.03
2022-10-23T03:18:12.424Z,93400.78
2022-10-23T03:21:17.336Z,93398.50
2022-10-23T03:24:20.435Z,93395.53
2022-10-23T03:27:23.491Z,93385.94
2022-10-23T03:30:26.466Z,93381.50
2022-10-23T03:33:34.550Z,93375.22
2022-10-23T03:36:45.950Z,93373.59
2022-10-23T03:39:50.276Z,93365.28
2022-10-23T03:42:53.407Z,93369.34
2022-10-23T03:45:59.393Z,93360.44
2022-10-23T03:49:02.826Z,93352.84
2022-10-23T03:52:07.142Z,93356.28
2022-10-23T03:55:10.235Z,93353.09
2022-10-23T03:58:13.275Z,93353.16
2022-10-23T04:01:16.841Z,93347.56
2022-10-23T04:04:21.960Z,93349.03
2022-10-23T04:07:25.338Z,93338.13
2022-10-23T04:10:29.099Z,93342.75
2022-10-23T04:13:32.122Z,93338.28
2022-10-23T04:16:35.214Z,93334.53
2022-10-23T04:19:38.447Z,93334.03
2022-10-23T04:22:41.971Z,93333.59
2022-10-23T04:28:51.046Z,93320.81
2022-10-23T04:31:54.045Z,93309.16
2022-10-23T04:34:57.112Z,93304.59
2022-10-23T04:38:00.514Z,93290.38
2022-10-23T04:41:04.905Z,93291.78
2022-10-23T04:44:08.773Z,93290.53
2022-10-23T04:47:15.089Z,93286.69
2022-10-23T04:50:36.162Z,93280.16
2022-10-23T04:53:47.889Z,93277.63
2022-10-23T04:57:09.209Z,93279.69
2022-10-23T05:00:29.699Z,93268.00
2022-10-23T05:03:33.858Z,93262.19
2022-10-23T05:06:36.938Z,93249.84
2022-10-23T05:10:08.084Z,93246.66
2022-10-23T05:13:21.474Z,93246.75
2022-10-23T05:17:19.618Z,93237.69
2022-10-23T05:20:25.988Z,93231.91
2022-10-23T05:23:30.679Z,93231.94
2022-10-23T05:26:37.201Z,93215.00
2022-10-23T05:29:43.716Z,93217.66
2022-10-23T05:32:47.006Z,93213.75
2022-10-23T05:35:50.297Z,93213.81
2022-10-23T05:38:54.595Z,93197.50
2022-10-23T05:41:58.024Z,93198.84
2022-10-23T05:45:01.995Z,93192.97
2022-10-23T05:48:34.183Z,93180.56
2022-10-23T05:52:14.025Z,93183.81
2022-10-23T05:55:19.846Z,93168.78
2022-10-23T05:58:46.401Z,93162.88
2022-10-23T06:01:54.855Z,93149.78
2022-10-23T06:05:11.727Z,93153.69
2022-10-23T06:08:33.913Z,93151.72
2022-10-23T06:11:37.525Z,93144.50
2022-10-23T06:14:46.693Z,93142.50
2022-10-23T06:17:50.003Z,93147.72
2022-10-23T06:20:53.553Z,93138.56
2022-10-23T06:24:00.933Z,93142.47
2022-10-23T06:27:13.714Z,93139.84
2022-10-23T06:30:19.078Z,93137.84
2022-10-23T06:33:23.790Z,93131.31
2022-10-23T06:36:27.556Z,93133.91
2022-10-23T06:39:37.591Z,93128.66
2022-10-23T06:42:49.111Z,93127.97
2022-10-23T06:46:12.920Z,93134.50
2022-10-23T06:49:34.598Z,93134.44
2022-10-23T06:52:47.021Z,93138.38
2022-10-23T06:55:55.453Z,93133.13
2022-10-23T06:58:59.776Z,93137.00
2022-10-23T07:02:02.977Z,93132.44
2022-10-23T07:05:08.786Z,93126.53
2022-10-23T07:08:16.023Z,93114.78
2022-10-23T07:11:21.913Z,93106.25
2022-10-23T07:14:25.231Z,93112.19
2022-10-23T07:17:30.296Z,93101.06
2022-10-23T07:20:35.125Z,93104.31
2022-10-23T07:23:38.663Z,93094.44
2022-10-23T07:26:42.946Z,93086.66
2022-10-23T07:29:46.164Z,93084.84
2022-10-23T07:32:50.365Z,93081.56
2022-10-23T07:36:13.021Z,93072.31
2022-10-23T07:39:17.479Z,93069.03
2022-10-23T07:42:26.717Z,93062.53
2022-10-23T07:45:29.796Z,93066.44
2022-10-23T07:48:35.273Z,93066.47
2022-10-23T07:51:39.024Z,93059.94
2022-10-23T07:54:43.357Z,93056.06
2022-10-23T07:57:56.410Z,93054.84
2022-10-23T08:01:18.220Z,93055.53
2022-10-23T08:04:22.382Z,93058.19
2022-10-23T08:07:34.127Z,93046.44
2022-10-23T08:10:37.490Z,93039.25
2022-10-23T08:13:44.500Z,93033.38
2022-10-23T08:16:48.162Z,93022.91
2022-10-23T08:19:53.946Z,93030.09
2022-10-23T08:22:57.968Z,93027.47
2022-10-23T08:26:06.468Z,93026.81
2022-10-23T08:29:09.499Z,93030.72
2022-10-23T08:32:12.919Z,93020.91
2022-10-23T08:35:42.208Z,93037.16
2022-10-23T08:38:45.513Z,93029.97
2022-10-23T08:41:53.519Z,93033.81
2022-10-23T08:45:09.246Z,93022.66
2022-10-23T08:48:26.252Z,93020.66
2022-10-23T08:51:51.250Z,93021.28
2022-10-23T08:55:16.788Z,93012.13
2022-10-23T08:58:24.643Z,93002.31
2022-10-23T09:01:43.979Z,93009.44
2022-10-23T09:04:50.451Z,93017.84
2022-10-23T09:08:24.962Z,93016.50
2022-10-23T09:11:34.008Z,93015.16
2022-10-23T09:14:57.131Z,93014.47
2022-10-23T09:18:09.781Z,93005.94
2022-10-23T09:21:12.875Z,93007.22
2022-10-23T09:24:19.901Z,93000.00
2022-10-23T09:27:23.183Z,92995.44
2022-10-23T09:30:38.877Z,93001.97
2022-10-23T09:33:42.309Z,92996.06
2022-10-23T09:36:52.700Z,92994.09
2022-10-23T09:40:20.076Z,92997.34
2022-10-23T09:43:26.376Z,92988.16
2022-10-23T09:46:43.236Z,92983.56
2022-10-23T09:49:52.275Z,92987.41
2022-10-23T09:52:56.792Z,92985.44
2022-10-23T09:56:06.195Z,92981.47
2022-10-23T09:59:12.233Z,92974.28
2022-10-23T10:02:29.492Z,92977.50
2022-10-23T10:06:04.419Z,92968.38
2022-10-23T10:09:18.669Z,92969.66
2022-10-23T10:12:30.871Z,92969.69
2022-10-23T10:15:51.590Z,92969.69
2022-10-23T10:19:18.999Z,92956.03
2022-10-23T10:22:37.006Z,92959.91
2022-10-23T10:25:51.343Z,92961.88
2022-10-23T10:29:01.128Z,92958.69
2022-10-23T10:32:17.155Z,92951.47
2022-10-23T10:35:22.487Z,92957.28
2022-10-23T10:38:46.575Z,92959.22
2022-10-23T10:42:05.047Z,92955.25
2022-10-23T10:45:16.826Z,92958.47
2022-10-23T10:48:30.285Z,92953.25
2022-10-23T10:52:17.989Z,92955.81
2022-10-23T10:55:26.103Z,92948.66
2022-10-23T10:58:38.140Z,92944.03
2022-10-23T11:01:50.547Z,92946.63
2022-10-23T11:05:16.578Z,92941.94
2022-10-23T11:08:44.392Z,92937.31
2022-10-23T11:11:57.325Z,92941.88
2022-10-23T11:15:00.794Z,92937.34
2022-10-23T11:18:12.396Z,92926.94
2022-10-23T11:21:37.344Z,92931.50
2022-10-23T11:24:49.098Z,92936.72
2022-10-23T11:28:11.303Z,92937.34
2022-10-23T11:31:39.570Z,92928.25
2022-10-23T11:35:04.720Z,92927.56
2022-10-23T11:38:15.557Z,92936.69
2022-10-23T11:41:29.062Z,92931.47
2022-10-23T11:44:43.345Z,92931.44
2022-10-23T11:47:59.076Z,92927.53
2022-10-23T11:51:05.148Z,92928.78
2022-10-23T11:54:11.357Z,92925.56
2022-10-23T11:57:18.469Z,92929.47
2022-10-23T12:00:23.634Z,92922.22
2022-10-23T12:03:52.686Z,92917.66
2022-10-23T12:07:02.253Z,92922.16
2022-10-23T12:10:26.827Z,92918.22
2022-10-23T12:13:38.135Z,92916.25
2022-10-23T12:16:41.472Z,92916.22
2022-10-23T12:19:53.775Z,92907.06
2022-10-23T12:23:16.714Z,92913.47
2022-10-23T12:26:25.535Z,92915.34
2022-10-23T12:30:02.474Z,92917.91
2022-10-23T12:33:08.420Z,92914.00
2022-10-23T12:36:23.121Z,92895.72
2022-10-23T12:39:29.920Z,92904.22
2022-10-23T12:42:33.104Z,92893.06
2022-10-23T12:45:42.839Z,92891.06
2022-10-23T12:48:54.070Z,92898.19
2022-10-23T12:52:02.643Z,92892.97
2022-10-23T12:55:15.763Z,92892.94
2022-10-23T12:58:25.436Z,92892.84
2022-10-23T13:01:38.383Z,92885.66
2022-10-23T13:04:42.683Z,92875.97
2022-10-23T13:07:48.000Z,92873.31
2022-10-23T13:10:54.504Z,92879.19
2022-10-23T13:13:59.004Z,92876.50
2022-10-23T13:17:08.311Z,92874.53
2022-10-23T13:20:28.001Z,92873.88
2022-10-23T13:23:35.519Z,92869.94
2022-10-23T13:26:48.196Z,92860.81
2022-10-23T13:29:51.344Z,92850.41
2022-10-23T13:32:54.622Z,92852.91
2022-10-23T13:36:15.550Z,92850.91
2022-10-23T13:39:25.149Z,92846.34
2022-10-23T13:42:28.215Z,92836.53
2022-10-23T13:45:31.352Z,92835.88
2022-10-23T13:48:34.425Z,92841.13
2022-10-23T13:51:50.564Z,92831.38
2022-10-23T13:54:53.617Z,92833.38
2022-10-23T13:57:57.004Z,92837.31
2022-10-23T14:01:00.386Z,92839.91
2022-10-23T14:04:04.990Z,92829.59
2022-10-23T14:07:07.972Z,92836.75
2022-10-23T14:10:11.131Z,92833.44
2022-10-23T14:13:14.298Z,92827.00
2022-10-23T14:16:19.650Z,92830.97
2022-10-23T14:19:22.911Z,92815.97
2022-10-23T14:22:26.016Z,92819.28
2022-10-23T14:25:29.393Z,92814.03
2022-10-23T14:28:32.716Z,92810.19
2022-10-23T14:31:35.764Z,92804.97
2022-10-23T14:34:42.022Z,92797.75
2022-10-23T14:37:45.285Z,92804.19
2022-10-23T14:40:48.664Z,92805.38
2022-10-23T14:43:52.523Z,92788.84
2022-10-23T14:46:55.505Z,92799.13
2022-10-23T14:49:58.716Z,92784.63
2022-10-23T14:56:09.784Z,92771.25
2022-10-23T14:59:14.017Z,92774.91
2022-10-23T15:02:17.807Z,92772.72
2022-10-23T15:05:21.145Z,92762.88
2022-10-23T15:08:24.721Z,92764.22
2022-10-23T15:11:29.570Z,92765.47
2022-10-23T15:14:32.937Z,92756.97
2022-10-23T15:17:37.721Z,92762.81
2022-10-23T15:20:41.110Z,92753.19
2022-10-23T15:23:46.154Z,92750.06
2022-10-23T15:26:50.534Z,92751.41
2022-10-23T15:29:53.832Z,92738.38
2022-10-23T15:32:56.855Z,92740.97
2022-10-23T15:35:59.893Z,92730.44
2022-10-23T15:39:03.941Z,92731.72
2022-10-23T15:42:07.787Z,92727.78
2022-10-23T15:45:13.831Z,92728.34
2022-10-23T15:48:16.877Z,92725.00
2022-10-23T15:51:19.902Z,92720.31
2022-10-23T15:54:23.208Z,92723.47
2022-10-23T15:57:27.511Z,92714.34
2022-10-23T16:00:30.545Z,92708.47
2022-10-23T16:03:38.132Z,92705.09
2022-10-23T16:06:41.275Z,92707.44
2022-10-23T16:09:44.498Z,92702.72
2022-10-23T16:12:47.528Z,92705.13
2022-10-23T16:15:50.475Z,92693.88
2022-10-23T16:18:53.543Z,92699.63
2022-10-23T16:21:56.559Z,92688.53
2022-10-23T16:24:59.558Z,92692.50
2022-10-23T16:28:02.675Z,92686.53
2022-10-23T16:31:20.482Z,92681.78
2022-10-23T16:34:24.256Z,92681.72
2022-10-23T16:37:28.923Z,92683.16
2022-10-23T16:40:40.327Z,92677.38
2022-10-23T16:44:15.289Z,92683.94
2022-10-23T16:47:32.569Z,92676.84
2022-10-23T16:50:35.686Z,92679.44
2022-10-23T16:53:39.635Z,92674.25
2022-10-23T16:56:43.110Z,92672.19
2022-10-23T16:59:47.376Z,92673.41
2022-10-23T17:02:50.725Z,92680.47
2022-10-23T17:05:56.459Z,92669.41
2022-10-23T17:09:04.467Z,92655.78
2022-10-23T17:12:08.086Z,92666.13
2022-10-23T17:15:12.826Z,92654.44
2022-10-23T17:18:16.022Z,92656.44
2022-10-23T17:21:21.313Z,92655.19
2022-10-23T17:24:24.679Z,92656.47
2022-10-23T17:27:27.849Z,92654.50
2022-10-23T17:30:31.135Z,92659.09
2022-10-23T17:33:34.254Z,92648.81
2022-10-23T17:36:40.229Z,92643.06
2022-10-23T17:39:43.503Z,92641.09
2022-10-23T17:42:46.812Z,92649.47
2022-10-23T17:45:50.057Z,92641.13
2022-10-23T17:48:53.222Z,92644.41
2022-10-23T17:51:58.353Z,92641.16
2022-10-23T17:55:01.486Z,92638.56
2022-10-23T17:58:04.616Z,92631.44
2022-10-23T18:01:10.070Z,92631.34
2022-10-23T18:04:13.404Z,92634.69
2022-10-23T18:07:16.917Z,92630.25
2022-10-23T18:10:20.136Z,92627.66
2022-10-23T18:13:23.342Z,92619.88
2022-10-23T18:16:26.997Z,92623.69
2022-10-23T18:19:31.152Z,92612.56
2022-10-23T18:22:34.237Z,92609.34
2022-10-23T18:25:42.653Z,92606.75
2022-10-23T18:28:47.601Z,92605.97
2022-10-23T18:31:52.011Z,92603.34
2022-10-23T18:34:56.268Z,92625.97
2022-10-23T18:37:59.371Z,92624.06
2022-10-23T18:41:03.863Z,92616.81
2022-10-23T18:44:07.797Z,92618.75
2022-10-23T18:47:10.916Z,92608.38
2022-10-23T18:50:14.071Z,92595.50
2022-10-23T18:53:17.156Z,92605.25
2022-10-23T18:56:24.008Z,92590.94
2022-10-23T18:59:27.250Z,92584.56
2022-10-23T19:02:30.970Z,92589.72
2022-10-23T19:05:34.466Z,92576.03
2022-10-23T19:08:39.492Z,92572.84
2022-10-23T19:11:43.566Z,92564.38
2022-10-23T19:14:46.770Z,92557.91
2022-10-23T19:17:55.959Z,92556.50
2022-10-23T19:21:01.915Z,92554.47
2022-10-23T19:24:09.494Z,92556.34
2022-10-23T19:27:12.792Z,92549.75
2022-10-23T19:30:21.897Z,92541.28
2022-10-23T19:33:25.896Z,92528.97
2022-10-23T19:36:30.388Z,92536.75
2022-10-23T19:39:33.624Z,92531.47
2022-10-23T19:42:39.220Z,92531.53
2022-10-23T19:45:42.311Z,92531.44
2022-10-23T19:48:47.319Z,92526.72
2022-10-23T19:51:51.411Z,92519.53
2022-10-23T19:54:54.692Z,92508.41
2022-10-23T19:57:57.635Z,92496.75
2022-10-23T20:01:11.302Z,92492.22
2022-10-23T20:04:14.578Z,92490.97
2022-10-23T20:07:17.910Z,92495.47
2022-10-23T20:10:20.978Z,92500.59
2022-10-23T20:13:24.280Z,92497.34
2022-10-23T20:16:30.604Z,92485.00
2022-10-23T20:19:33.757Z,92479.78
2022-10-23T20:22:40.564Z,92475.88
2022-10-23T20:25:46.247Z,92483.63
2022-10-23T20:28:52.482Z,92481.69
2022-10-23T20:31:55.606Z,92464.81
2022-10-23T20:34:58.689Z,92455.72
2022-10-23T20:38:01.650Z,92445.41
2022-10-23T20:41:07.604Z,92443.38
2022-10-23T20:44:14.236Z,92433.03
2022-10-23T20:47:17.491Z,92432.25
2022-10-23T20:50:21.493Z,92428.31
2022-10-23T20:53:24.510Z,92437.28
2022-10-23T20:56:31.801Z,92423.66
2022-10-23T20:59:34.896Z,92433.22
2022-10-23T21:02:38.080Z,92431.84
2022-10-23T21:05:41.176Z,92427.97
2022-10-23T21:08:44.830Z,92431.72
2022-10-23T21:11:48.000Z,92430.94
2022-10-23T21:14:51.015Z,92429.06
2022-10-23T21:17:54.005Z,92419.97
2022-10-23T21:20:57.013Z,92426.38
2022-10-23T21:24:01.152Z,92423.81
2022-10-23T21:27:04.232Z,92407.56
2022-10-23T21:30:08.696Z,92406.84
2022-10-23T21:33:11.619Z,92405.47
2022-10-23T21:36:20.038Z,92415.13
2022-10-23T21:39:23.248Z,92401.41
2022-10-23T21:42:26.561Z,92397.53
2022-10-23T21:45:29.683Z,92399.44
2022-10-23T21:48:33.814Z,92405.25
2022-10-23T21:51:38.093Z,92396.06
2022-10-23T21:54:41.140Z,92396.13
2022-10-23T21:57:44.302Z,92395.53
2022-10-23T22:00:47.513Z,92392.28
2022-10-23T22:03:51.137Z,92387.03
2022-10-23T22:06:54.193Z,92385.59
2022-10-23T22:09:57.174Z,92384.31
2022-10-23T22:13:00.178Z,92379.72
2022-10-23T22:16:05.012Z,92377.72
2022-10-23T22:19:07.831Z,92378.38
2022-10-23T22:22:10.977Z,92375.66
2022-10-23T22:25:13.971Z,92372.38
2022-10-23T22:28:17.053Z,92362.69
2022-10-23T22:31:25.483Z,92374.25
2022-10-23T22:37:53.674Z,92356.84
2022-10-23T22:40:56.632Z,92346.53
2022-10-23T22:44:01.068Z,92350.34
2022-10-23T22:47:04.466Z,92354.81
2022-10-23T22:50:08.067Z,92357.28
2022-10-23T22:53:11.147Z,92357.88
2022-10-23T22:56:18.526Z,92366.28
2022-10-23T22:59:21.620Z,92363.19
2022-10-23T23:02:24.710Z,92356.81
2022-10-23T23:05:27.768Z,92357.47
2022-10-23T23:08:30.868Z,92354.19
2022-10-23T23:11:45.649Z,92354.88
2022-10-23T23:14:54.936Z,92358.25
2022-10-23T23:17:57.904Z,92360.91
2022-10-23T23:21:05.630Z,92352.63
2022-10-23T23:24:08.864Z,92354.00
2022-10-23T23:27:12.024Z,92354.13
2022-10-23T23:30:15.113Z,92353.38
2022-10-23T23:33:24.363Z,92355.97
2022-10-23T23:36:28.807Z,92351.50
2022-10-23T23:39:31.834Z,92343.72
2022-10-23T23:42:35.585Z,92350.72
2022-10-23T23:45:39.809Z,92342.28
2022-10-23T23:48:48.367Z,92343.59
2022-10-23T23:51:51.908Z,92342.28
2022-10-23T23:54:55.439Z,92333.31
2022-10-23T23:57:58.578Z,92332.06
